Timeline UpdatesTrip UpdatesNews PostsPvt PostsTravel TipsAdmin PostsConv PostsFollowed PostsChat RequestsBlog PostsPNR Posts

Disclaimer
Search
 
 
Wed Oct 1, 2014 13:45:28 ISTHomeTrainsΣChainsAtlasPNRForumGalleryNewsFAQTripsMembersLoginFeedback
No Recent News for this Train
Other Trains in the News **new
Latest...
.
Sat May 05, 2012 (10:37PM)
⇐ Return Journey: Train# 54803

54804/Ahmedabad Jodhpur Passenger (UnReserved)

Time-Table HAS CHANGED.
Sep 04 (10:57AM)
Change Departure Station:
Change Arrival Station:
Post a Train Travel TipPost a Train Travel Tip **new
Post a Comment/Question/Picture/VideoPost a Comment/Question/Picture/Video
Pantry/Catering
✕ NO Pantry Car
✕ NO Catering
RSA - Rake Sharing
3 different rounds (6 services) are run by the rakes of this train. 54803 Jodhpur (JU) - Ahemedabad (ADI) becomes 54806 for Ahmedabad - Ajmer (AII) which further goes to Jaipur (JP) as 54807. 54808 comes from Jaipur to Ajmer which further goes to Ahmedabad as 54805 and becomes...
Read more...
54804 from Ahmedabad to Jodhpur.
Rake/Coach Composition
Loco
WDM 2A ABR Shed.
News    PNR    Forum    Time-Table    Availability    Fare Chart    Map    Arr/Dep History    Trips    Gallery    ΣChains    X/O    Timeline    
Travel Time: 6h 45m    25 halts    Distance: 218 km    Avg Speed: 32 km/hr
Type: Passenger
Zone: NWR/North Western
Departs @ 13:35 (Avg 1h 11m late)
Platform# ???
SMTWTFS
Keshavganj/KVJ 
Arrives @ 20:20 (Avg 43m late)
Platform# ???
SMTWTFS
Jodhpur Junction/JU 

25 halts. 26 intermediate Stations between Keshavganj and Jodhpur Junction

Show ALL intermediate Stations  Show Old Time-Table

#CodeStation NameX/OArrivesAvgDepartsAvgHaltPFDay#KmSpeedElevZoneAddress
1ADIAhmedabad Junction (12)  -06:15+191-238.02551mWRAhmedabad, Gujarat
2SBTSabarmati Junction (3)  06:28+506:30+52m--1-232.62952mWRAhmedabad, Gujarat
3KHDBKhodiyar  06:52+1906:54+232m--1-222.12664mWRKhodiyar, Gujarat
4KLLKalol (3)X  07:08 07:19+3107:10 07:21+322m--1-211.25971mWRKalol, Gujarat
5JULJhulasan (3)X  07:22 07:31+3207:24 07:33+342m--1-201.45677mWRMehsana, Gujarat
6DNWDangarwaX  07:39 07:40+2807:41 07:42+292m--1-194.85883mWRJagudan, Gujarat
7UMNAmbliyasan  07:48 07:50+3107:50 07:52+372m--1-187.13990mWRMehsana, Gujarat
8JDNJagudanX  08:04+3508:06+452m--1-179.21790mWRKochva Road, Gujarat
9MSHMahesana Junction (6)X  08:40+2308:50+1710m--1-169.47495mWRMehsana, Gujarat
10BHUBhandu Motidau  08:59+1909:01+192m--1-158.37297mWRMahesana, Gujarat
11UJAUnjha  09:10+2009:12+192m--1-147.563116mWRUnjha, Gujarat
12KMLIKamli  09:19+2009:21+222m--1-140.263126mWRChhapi, Gujarat
13SIDSiddhpur  09:27+2309:29+232m--1-133.842136mWRState Highway 41, Gujarat
14DRWDharewada  09:37+2509:39+262m--1-128.357145mWRUnjha, Gujarat
15CHPChhapi  09:47+2609:49+262m--1-120.659169mWRBanaskantha, Gujarat
16UMUmardashi  09:57+2709:59+292m--1-112.821187mWRChitrasani, Gujarat
17PNUPalanpur Junction (5)XO  10:23+1310:28+155m--1-104.445216mWRPalanpur, Gujarat
18KRJDKarjodaXO  10:36+3010:37+321m--1-98.454234mNWRChhapi, Gujarat
19CTTChitrasani  10:43+3310:44+331m--1-92.944225mNWRChitrasani, Gujarat
20JTYJethiO  10:50+3510:52 10:51+372 1m--1-88.546212mNWRBANASKANTHA, Gujarat
21IQGIqbal GadhXO  10:59+3811:00+391m--1-82.464209mNWRBanaskantha, Gujarat
22SZASarotra Road  11:07+4011:08+431m--1-74.954216mNWRSarotra, Gujarat
23SIMShri AmirgadhX  11:14+4411:15+491m--1-69.556229mNWRAmirgadh, Gujarat
24MAAMavalXO  11:24+4911:25+571m--1-61.222245mNWRNational Highway 14, Rajasthan
25ABRAbu Road (3)X  11:50+4112:15+4225m11-51.821264mNWRSirohi Dist, Rajasthan
26MXOMorthala  12:24+5012:25+511m--1-48.744267mNWRNH 14, Rajasthan
27KWIKivarli  12:33+5212:34+571m--1-42.843281mNWRShri Amirgadh, Rajasthan
28BMNBhimana  12:45+5512:46+1:001m--1-35.057313mNWRAbu Road, Rajasthan
29SRPJSwarupGanjO  12:55+1:0112:56+1:071m--1-26.426334mNWRSirohi Road, Rajasthan
30BNSBanas  13:17 13:15+5613:18 13:16+591m--1-18.076347mNWRSirohi Road, Rajasthan
31SOHSirohi Road (2)  13:29 13:24+1:0013:30 13:25+1:011m--1-7.953369mNWRPindwara, Rajasthan
32KVJKeshavganj»X  13:42 13:34+1:0013:43 13:35+1:111m--10.060393mNWRJawai Bandh, Rajasthan
33NANANanaX  14:34 13:44+4114:35 13:45+471m--19.041355mNWRNana, Rajasthan
34KTRKothar  15:09 13:54+3015:10 13:55+341m--115.254346mNWRPali, Rajasthan
35MOIMori Bera  15:17 14:02+3515:18 14:03+401m--121.563323mNWRNana, Rajasthan
36JWBJawai BandhX  15:27 14:12+4115:28 14:13+431m--130.945292mNWRPali, Rajasthan
37BRLYBiroliyaX  15:37 14:24+4215:38 14:25+431m--139.148294mNWRBiroliya Rd, Rajasthan
38FAFalna (2)  15:47 14:35+3915:50 14:40+403 5m--147.161282mNWRFalna, Rajasthan
39KZQKhimel  15:57 14:48+4515:58 14:49+471m--155.255277mNWRJawai Bandh, Rajasthan
40RANIRaniXO  16:05 14:56+4316:06 14:57+441m--161.56280mNWRRania, Rajasthan
41BGPRBhagwanpura  16:15+2916:16+301m--169.657276mNWRSomesar, Rajasthan
42JALJawali  16:24+2716:25+281m--177.263270mNWRRania, Rajasthan
43SOSSomesar  16:33+2816:34+281m--185.652269mNWRSomesar, Rajasthan
44BWABhinwaliyaX  16:41+2916:42+301m--191.651268mNWRPindwara, Rajasthan
45BGGBanta Raghunathgarh  16:49+3216:50+321m--197.623266mNWRSomesar, Rajasthan
46AUWAAuwa (2)X  16:58 17:09+3116:59 17:10+331m--1104.935265mNWRSomesar, Rajasthan
47MJMarwar Junction (4)  17:25+1917:35+1910m--1113.663267mNWRMarwar Junction, Rajasthan
48RKZRajkiawas  17:44 17:45+3917:46+402 1m--1124.162245mNWRMarwar, Rajasthan
49BOMBomadraX  17:54 17:55+4017:56+412 1m--1133.361234mNWRPali Marwar, Rajasthan
50PMYPali Marwar (2)  18:07+3118:09+362m--1144.557221mNWRPali, Rajasthan
51KAIKairla  18:25+4718:27 18:26+532 1m--1159.661213mNWRPali, Rajasthan
52RTRohat  18:38 18:39+1:0018:40+1:062 1m--1172.860183mNWRSH 64, Rajasthan
53LUNILuni Junction (3)  18:53+5518:56+1:073m--1185.764180mNWRLuni, Rajasthan
54HWTHanwantX  19:02+1:2219:04+1:212m--1192.143185mNWRBasni, Rajasthan
55SZSalawasX  19:17+1:1919:19+1:182m--1201.571193mNWRLuni, Rajasthan
56BANEBasniXO  19:28 19:27+1:1819:30 19:29+1:182m--1210.97219mNWRJodhpur, Rajasthan
57BGKTBhagat Ki Kothi (3)  20:03 19:57+3320:05 19:58+372 1m--1214.010229mNWRJodhpur, Rajasthan
58JUJodhpur Junction (5)•  20:35 20:20+43---1217.5-241mNWRJodhpur, Rajasthan
Scroll to Top
Scroll to Bottom